Time;durP1;ratioP1;P1;durP2;ratioP2;P2;SDS_P1;SDS_P2;PMS_P1;PMS_P2;Temp;Humidity;BMP_temperature;BMP_pressure;BME280_temperature;BME280_humidity;BME280_pressure;Samples;Min_cycle;Max_cycle;Signal;HPM_P1;HPM_P2
2023/04/09 00:00:23;;;;;;;34.13;21.92;;;;;;;;;;5073091;28;20190;-69
2023/04/09 00:02:52;;;;;;;37.20;22.73;;;;;;;;;;5072868;28;20233;-69
2023/04/09 00:05:19;;;;;;;36.45;24.17;;;;;;;;;;5073219;28;20190;-69
2023/04/09 00:07:47;;;;;;;37.72;24.17;;;;;;;;;;5073176;28;20194;-69
2023/04/09 00:10:14;;;;;;;34.80;23.77;;;;;;;;;;5072660;28;20659;-68
2023/04/09 00:12:41;;;;;;;35.63;23.63;;;;;;;;;;5072988;28;20567;-68
2023/04/09 00:15:09;;;;;;;37.75;22.98;;;;;;;;;;5073197;28;20197;-68
2023/04/09 00:17:36;;;;;;;31.55;20.55;;;;;;;;;;5072746;28;20196;-69
2023/04/09 00:20:06;;;;;;;34.63;22.23;;;;;;;;;;5073024;28;20553;-69
2023/04/09 00:22:33;;;;;;;33.13;21.25;;;;;;;;;;5073154;28;20575;-69
2023/04/09 00:25:00;;;;;;;33.17;20.73;;;;;;;;;;5072890;28;20197;-69
2023/04/09 00:27:28;;;;;;;36.88;21.77;;;;;;;;;;5073212;28;20195;-69
2023/04/09 00:29:55;;;;;;;36.80;21.75;;;;;;;;;;5072834;28;20197;-69
2023/04/09 00:32:22;;;;;;;31.35;20.85;;;;;;;;;;5075196;28;20228;-69
2023/04/09 00:34:50;;;;;;;30.98;20.38;;;;;;;;;;5076694;28;20194;-69
2023/04/09 00:37:18;;;;;;;32.22;21.08;;;;;;;;;;5076872;28;20205;-69
2023/04/09 00:39:46;;;;;;;34.45;21.83;;;;;;;;;;5077140;28;20198;-69
2023/04/09 00:42:13;;;;;;;28.63;19.58;;;;;;;;;;5076690;28;20292;-69
2023/04/09 00:44:40;;;;;;;39.10;23.10;;;;;;;;;;5076354;28;20198;-69
2023/04/09 00:47:07;;;;;;;37.50;23.75;;;;;;;;;;5076738;28;20202;-69
2023/04/09 00:49:35;;;;;;;33.47;23.42;;;;;;;;;;5076775;28;20200;-69
2023/04/09 00:52:02;;;;;;;38.90;25.08;;;;;;;;;;5075980;28;20214;-69
2023/04/09 00:54:30;;;;;;;36.30;24.67;;;;;;;;;;5076192;28;20200;-69
2023/04/09 00:56:58;;;;;;;38.72;25.17;;;;;;;;;;5076257;28;20289;-68
2023/04/09 00:59:25;;;;;;;37.10;26.85;;;;;;;;;;5076109;28;20253;-69
2023/04/09 01:01:52;;;;;;;40.22;26.10;;;;;;;;;;5076149;28;20606;-69
2023/04/09 01:04:20;;;;;;;43.40;26.77;;;;;;;;;;5076293;28;20232;-68
2023/04/09 01:06:51;;;;;;;40.53;26.60;;;;;;;;;;5075655;28;20662;-69
2023/04/09 01:09:22;;;;;;;41.92;26.35;;;;;;;;;;5076097;28;20183;-69
2023/04/09 01:11:56;;;;;;;47.05;28.15;;;;;;;;;;5075540;28;20216;-69
2023/04/09 01:14:25;;;;;;;42.83;27.17;;;;;;;;;;5075676;28;20264;-69
2023/04/09 01:16:53;;;;;;;44.58;27.92;;;;;;;;;;5075724;28;20275;-69
2023/04/09 01:19:27;;;;;;;44.83;28.27;;;;;;;;;;5076412;28;20559;-69
2023/04/09 01:21:55;;;;;;;41.03;28.40;;;;;;;;;;5076030;28;20194;-69
2023/04/09 01:24:32;;;;;;;43.88;30.02;;;;;;;;;;5076001;28;20194;-69
2023/04/09 01:27:04;;;;;;;46.47;27.45;;;;;;;;;;5075737;28;20182;-68
2023/04/09 01:29:33;;;;;;;44.42;28.65;;;;;;;;;;5075631;28;20206;-69
2023/04/09 01:32:02;;;;;;;45.35;31.45;;;;;;;;;;5075099;28;20224;-69
2023/04/09 01:34:29;;;;;;;50.67;30.55;;;;;;;;;;5075454;28;20201;-68
2023/04/09 01:36:58;;;;;;;51.80;32.80;;;;;;;;;;5075483;28;20225;-69
2023/04/09 01:39:26;;;;;;;50.53;29.45;;;;;;;;;;5075854;28;20204;-69
2023/04/09 01:41:53;;;;;;;52.70;30.58;;;;;;;;;;5075302;28;20197;-71
2023/04/09 01:44:21;;;;;;;48.03;29.92;;;;;;;;;;5074444;28;20208;-69
2023/04/09 01:46:50;;;;;;;58.67;31.65;;;;;;;;;;5075212;28;20194;-69
2023/04/09 01:49:18;;;;;;;49.00;31.35;;;;;;;;;;5075216;28;20195;-69
2023/04/09 01:51:45;;;;;;;57.53;33.53;;;;;;;;;;5075005;28;20191;-68
2023/04/09 01:54:12;;;;;;;62.63;34.10;;;;;;;;;;5075067;28;20226;-69
2023/04/09 01:56:43;;;;;;;48.88;34.13;;;;;;;;;;5075357;28;20213;-69
2023/04/09 01:59:10;;;;;;;54.63;35.08;;;;;;;;;;5075080;28;20555;-69
2023/04/09 02:01:39;;;;;;;60.15;35.88;;;;;;;;;;5075401;28;20194;-69
2023/04/09 02:04:10;;;;;;;60.03;36.28;;;;;;;;;;5074703;28;20235;-69
2023/04/09 02:06:40;;;;;;;59.75;35.67;;;;;;;;;;5074496;28;20706;-69
2023/04/09 02:09:09;;;;;;;57.25;36.38;;;;;;;;;;5074786;28;20198;-69
2023/04/09 02:11:38;;;;;;;59.50;34.72;;;;;;;;;;5074545;28;20555;-69
2023/04/09 02:14:07;;;;;;;57.75;35.08;;;;;;;;;;5074678;28;20292;-69
2023/04/09 02:16:35;;;;;;;61.17;35.85;;;;;;;;;;5074807;28;20556;-69
2023/04/09 02:19:02;;;;;;;63.45;37.67;;;;;;;;;;5074551;28;20229;-69
2023/04/09 02:21:31;;;;;;;58.70;34.63;;;;;;;;;;5074478;28;20196;-69
2023/04/09 02:23:58;;;;;;;58.20;36.72;;;;;;;;;;5074590;28;20195;-69
2023/04/09 02:26:25;;;;;;;57.75;36.30;;;;;;;;;;5074680;28;20215;-69
2023/04/09 02:28:52;;;;;;;65.78;34.42;;;;;;;;;;5074137;28;20199;-69
2023/04/09 02:31:19;;;;;;;68.00;37.33;;;;;;;;;;5074243;28;20194;-69
2023/04/09 02:33:47;;;;;;;59.15;35.60;;;;;;;;;;5074118;28;20236;-68
2023/04/09 02:36:14;;;;;;;59.10;34.65;;;;;;;;;;5073837;28;20197;-69
2023/04/09 02:38:42;;;;;;;60.20;35.17;;;;;;;;;;5073938;28;20663;-69
2023/04/09 02:41:10;;;;;;;62.90;36.90;;;;;;;;;;5073820;28;20201;-69
2023/04/09 02:43:37;;;;;;;62.05;36.45;;;;;;;;;;5074648;28;20536;-69
2023/04/09 02:46:04;;;;;;;61.42;34.85;;;;;;;;;;5074007;28;20193;-69
2023/04/09 02:48:32;;;;;;;58.10;34.30;;;;;;;;;;5074021;28;20207;-69
2023/04/09 02:50:59;;;;;;;62.53;36.22;;;;;;;;;;5073624;28;20295;-69
2023/04/09 02:53:26;;;;;;;60.05;37.83;;;;;;;;;;5073579;28;20712;-69
2023/04/09 02:55:55;;;;;;;60.08;36.15;;;;;;;;;;5073987;28;20199;-69
2023/04/09 02:58:22;;;;;;;58.55;33.83;;;;;;;;;;5074002;28;20201;-69
2023/04/09 03:00:49;;;;;;;63.15;35.15;;;;;;;;;;5074186;28;20204;-69
2023/04/09 03:03:16;;;;;;;60.60;34.17;;;;;;;;;;5073588;28;20228;-68
2023/04/09 03:05:43;;;;;;;51.90;33.30;;;;;;;;;;5073973;28;20197;-68
2023/04/09 03:08:10;;;;;;;57.83;34.22;;;;;;;;;;5073617;28;20201;-69
2023/04/09 03:10:38;;;;;;;56.13;34.25;;;;;;;;;;5073721;28;20206;-68
2023/04/09 03:13:06;;;;;;;54.95;32.38;;;;;;;;;;5073184;28;20223;-68
2023/04/09 03:15:33;;;;;;;48.90;32.85;;;;;;;;;;5074090;28;20197;-68
2023/04/09 03:18:00;;;;;;;52.00;32.78;;;;;;;;;;5073641;28;20204;-68
2023/04/09 03:20:28;;;;;;;60.97;35.33;;;;;;;;;;5073699;28;20193;-68
2023/04/09 03:22:55;;;;;;;55.55;34.20;;;;;;;;;;5073469;28;20284;-68
2023/04/09 03:25:22;;;;;;;59.45;34.47;;;;;;;;;;5073687;28;20204;-68
2023/04/09 03:27:49;;;;;;;61.67;33.78;;;;;;;;;;5073108;28;20204;-68
2023/04/09 03:30:18;;;;;;;63.85;36.15;;;;;;;;;;5073525;28;20546;-70
2023/04/09 03:32:45;;;;;;;59.72;35.33;;;;;;;;;;5073234;28;20221;-68
2023/04/09 03:35:12;;;;;;;60.88;34.58;;;;;;;;;;5073083;28;20198;-68
2023/04/09 03:37:39;;;;;;;55.45;34.38;;;;;;;;;;5073356;28;20201;-69
2023/04/09 03:40:07;;;;;;;63.00;34.45;;;;;;;;;;5056572;28;20200;-69
2023/04/09 03:42:36;;;;;;;58.70;34.25;;;;;;;;;;5052293;28;20201;-69
2023/04/09 03:45:03;;;;;;;53.28;34.00;;;;;;;;;;5052531;28;20288;-69
2023/04/09 03:47:32;;;;;;;64.10;36.42;;;;;;;;;;5053292;28;20624;-69
2023/04/09 03:49:59;;;;;;;65.15;35.90;;;;;;;;;;5053402;28;20198;-69
2023/04/09 03:52:26;;;;;;;61.42;35.50;;;;;;;;;;5061953;28;20276;-68
2023/04/09 03:54:53;;;;;;;60.75;35.88;;;;;;;;;;5093084;28;20192;-70
2023/04/09 03:57:20;;;;;;;71.30;36.47;;;;;;;;;;5092986;28;20205;-68
2023/04/09 03:59:48;;;;;;;69.45;37.90;;;;;;;;;;5093046;28;20197;-68
2023/04/09 04:02:15;;;;;;;58.70;35.65;;;;;;;;;;5093117;28;20200;-68
2023/04/09 04:04:43;;;;;;;62.17;36.78;;;;;;;;;;5092722;28;20777;-68
2023/04/09 04:07:10;;;;;;;60.33;37.10;;;;;;;;;;5095850;28;20201;-69
2023/04/09 04:09:38;;;;;;;66.78;38.60;;;;;;;;;;5097341;28;20196;-68
2023/04/09 04:12:05;;;;;;;65.30;36.35;;;;;;;;;;5097472;28;20207;-68
2023/04/09 04:14:32;;;;;;;68.82;37.50;;;;;;;;;;5097419;28;20224;-69
2023/04/09 04:16:59;;;;;;;74.80;37.63;;;;;;;;;;5097102;28;20197;-69
2023/04/09 04:19:26;;;;;;;66.47;38.80;;;;;;;;;;5096885;28;20203;-69
2023/04/09 04:21:55;;;;;;;59.63;38.03;;;;;;;;;;5097232;28;20197;-69
2023/04/09 04:24:22;;;;;;;67.78;39.25;;;;;;;;;;5096730;28;20212;-68
2023/04/09 04:26:49;;;;;;;69.43;38.92;;;;;;;;;;5096823;28;20200;-68
2023/04/09 04:29:17;;;;;;;65.38;37.67;;;;;;;;;;5096921;28;20199;-68
2023/04/09 04:31:44;;;;;;;72.72;39.95;;;;;;;;;;5096741;28;20235;-69
2023/04/09 04:34:11;;;;;;;70.65;39.55;;;;;;;;;;5096893;28;20235;-69
2023/04/09 04:36:38;;;;;;;71.57;39.88;;;;;;;;;;5097411;28;20201;-68
2023/04/09 04:39:07;;;;;;;67.45;39.72;;;;;;;;;;5096764;28;20203;-69
2023/04/09 04:41:34;;;;;;;77.25;40.88;;;;;;;;;;5096794;28;20279;-68
2023/04/09 04:44:01;;;;;;;80.25;41.20;;;;;;;;;;5096436;28;20225;-69
2023/04/09 04:46:28;;;;;;;73.13;39.08;;;;;;;;;;5096618;28;20201;-69
2023/04/09 04:48:55;;;;;;;79.70;37.92;;;;;;;;;;5096549;28;20193;-68
2023/04/09 04:51:23;;;;;;;72.68;40.42;;;;;;;;;;5096546;28;20291;-69
2023/04/09 04:53:50;;;;;;;69.40;40.03;;;;;;;;;;5096337;28;20227;-68
2023/04/09 04:56:18;;;;;;;65.40;37.85;;;;;;;;;;5096436;28;20202;-68
2023/04/09 04:58:46;;;;;;;62.53;38.13;;;;;;;;;;5096494;28;20196;-68
2023/04/09 05:01:13;;;;;;;72.10;39.15;;;;;;;;;;5096128;28;20223;-69
2023/04/09 05:03:40;;;;;;;66.40;39.58;;;;;;;;;;5096146;28;20228;-68
2023/04/09 05:06:07;;;;;;;80.38;40.50;;;;;;;;;;5096273;28;20196;-69
2023/04/09 05:08:35;;;;;;;71.00;39.58;;;;;;;;;;5096178;28;20254;-68
2023/04/09 05:11:02;;;;;;;71.35;40.35;;;;;;;;;;5096773;28;20203;-69
2023/04/09 05:13:31;;;;;;;66.22;38.15;;;;;;;;;;5095974;28;20219;-68
2023/04/09 05:15:58;;;;;;;68.22;36.80;;;;;;;;;;5096068;28;20196;-68
2023/04/09 05:18:25;;;;;;;72.95;38.95;;;;;;;;;;5094294;28;20200;-68
2023/04/09 05:20:52;;;;;;;70.95;38.28;;;;;;;;;;5095667;28;20200;-68
2023/04/09 05:23:19;;;;;;;63.78;37.97;;;;;;;;;;5095299;28;20200;-68
2023/04/09 05:25:49;;;;;;;74.60;38.95;;;;;;;;;;5096248;28;20198;-68
2023/04/09 05:28:16;;;;;;;72.25;37.65;;;;;;;;;;5095631;28;20586;-68
2023/04/09 05:30:48;;;;;;;70.63;39.03;;;;;;;;;;5095809;28;20201;-68
2023/04/09 05:33:15;;;;;;;69.95;38.70;;;;;;;;;;5095484;28;20221;-68
2023/04/09 05:35:42;;;;;;;68.40;39.15;;;;;;;;;;5095493;28;20200;-69
2023/04/09 05:38:09;;;;;;;65.45;37.55;;;;;;;;;;5095314;28;20206;-68
2023/04/09 05:40:36;;;;;;;77.03;41.28;;;;;;;;;;5095343;28;20202;-68
2023/04/09 05:43:03;;;;;;;66.88;38.15;;;;;;;;;;5095235;28;20204;-68
2023/04/09 05:45:31;;;;;;;67.30;38.28;;;;;;;;;;5095157;28;20212;-68
2023/04/09 05:47:59;;;;;;;69.28;41.22;;;;;;;;;;5095060;28;20196;-69
2023/04/09 05:50:26;;;;;;;64.50;36.90;;;;;;;;;;5096201;28;20224;-68
2023/04/09 05:52:54;;;;;;;66.55;39.30;;;;;;;;;;5095534;28;20557;-68
2023/04/09 05:55:21;;;;;;;66.00;37.40;;;;;;;;;;5095284;28;20200;-69
2023/04/09 05:57:48;;;;;;;65.22;37.40;;;;;;;;;;5095682;28;20203;-68
2023/04/09 06:00:17;;;;;;;61.75;38.30;;;;;;;;;;5095407;28;20200;-77
2023/04/09 06:02:44;;;;;;;70.20;36.88;;;;;;;;;;5094999;28;20232;-77
2023/04/09 06:05:12;;;;;;;58.53;36.63;;;;;;;;;;5094767;28;20212;-69
2023/04/09 06:07:40;;;;;;;70.68;38.28;;;;;;;;;;5095319;28;20292;-68
2023/04/09 06:10:08;;;;;;;68.75;39.20;;;;;;;;;;5094675;28;20224;-68
2023/04/09 06:12:35;;;;;;;66.07;37.97;;;;;;;;;;5094690;28;20284;-68
2023/04/09 06:15:03;;;;;;;64.05;35.85;;;;;;;;;;5094861;28;20225;-68
2023/04/09 06:17:30;;;;;;;65.57;37.15;;;;;;;;;;5094617;28;20208;-76
2023/04/09 06:19:57;;;;;;;63.70;37.80;;;;;;;;;;5094479;28;20198;-68
2023/04/09 06:22:25;;;;;;;58.53;35.70;;;;;;;;;;5094612;28;20197;-68
2023/04/09 06:24:53;;;;;;;63.38;36.47;;;;;;;;;;5094637;28;20588;-67
2023/04/09 06:27:20;;;;;;;57.33;33.63;;;;;;;;;;5094943;28;20558;-68
2023/04/09 06:29:48;;;;;;;65.63;39.10;;;;;;;;;;5093949;28;20204;-67
2023/04/09 06:32:15;;;;;;;61.00;36.92;;;;;;;;;;5094439;28;20197;-68
2023/04/09 06:34:42;;;;;;;61.65;37.70;;;;;;;;;;5094651;28;20666;-67
2023/04/09 06:37:09;;;;;;;65.53;37.22;;;;;;;;;;5094632;28;20262;-67
2023/04/09 06:39:38;;;;;;;56.25;34.33;;;;;;;;;;5093962;28;20208;-68
2023/04/09 06:42:05;;;;;;;52.65;33.17;;;;;;;;;;5094179;28;20203;-67
2023/04/09 06:44:33;;;;;;;56.92;34.92;;;;;;;;;;5094285;28;20208;-67
2023/04/09 06:47:02;;;;;;;59.28;34.97;;;;;;;;;;5094065;28;20200;-67
2023/04/09 06:49:29;;;;;;;57.38;36.70;;;;;;;;;;5094210;28;20247;-67
2023/04/09 06:51:56;;;;;;;63.58;37.35;;;;;;;;;;5094592;28;20193;-68
2023/04/09 06:54:23;;;;;;;60.10;35.65;;;;;;;;;;5094316;28;20247;-67
2023/04/09 06:56:52;;;;;;;54.60;33.40;;;;;;;;;;5094011;28;20203;-68
2023/04/09 06:59:19;;;;;;;62.33;36.42;;;;;;;;;;5094061;28;20193;-68
2023/04/09 07:01:46;;;;;;;57.53;36.00;;;;;;;;;;5093673;28;20193;-68
2023/04/09 07:04:13;;;;;;;61.60;37.03;;;;;;;;;;5094214;28;20240;-68
2023/04/09 07:06:40;;;;;;;57.08;34.53;;;;;;;;;;5094495;28;20193;-68
2023/04/09 07:09:08;;;;;;;59.85;34.53;;;;;;;;;;5093940;28;20212;-69
2023/04/09 07:11:36;;;;;;;60.70;35.03;;;;;;;;;;5093640;28;20281;-68
2023/04/09 07:14:04;;;;;;;59.75;31.95;;;;;;;;;;5093453;28;20220;-68
2023/04/09 07:16:31;;;;;;;54.33;33.55;;;;;;;;;;5094146;28;20540;-68
2023/04/09 07:18:59;;;;;;;53.25;32.58;;;;;;;;;;5093878;28;20560;-68
2023/04/09 07:21:27;;;;;;;55.65;33.67;;;;;;;;;;5093450;28;20196;-68
2023/04/09 07:23:55;;;;;;;51.50;31.80;;;;;;;;;;5093450;28;20197;-68
2023/04/09 07:26:22;;;;;;;54.22;32.65;;;;;;;;;;5093324;28;20192;-68
2023/04/09 07:28:49;;;;;;;52.53;32.80;;;;;;;;;;5093428;28;20204;-67
2023/04/09 07:31:18;;;;;;;48.97;32.35;;;;;;;;;;5093497;28;20197;-68
2023/04/09 07:33:45;;;;;;;50.35;32.17;;;;;;;;;;5093119;28;20217;-67
2023/04/09 07:36:12;;;;;;;59.42;31.77;;;;;;;;;;5093177;28;20193;-68
2023/04/09 07:38:40;;;;;;;46.53;30.33;;;;;;;;;;5093559;28;20227;-68
2023/04/09 07:41:07;;;;;;;49.05;31.27;;;;;;;;;;5077266;28;20197;-68
2023/04/09 07:43:34;;;;;;;45.92;30.00;;;;;;;;;;5073321;28;20190;-68
2023/04/09 07:46:01;;;;;;;46.25;29.75;;;;;;;;;;5072922;28;20198;-68
2023/04/09 07:48:30;;;;;;;48.08;29.05;;;;;;;;;;5073339;28;20198;-68
2023/04/09 07:50:57;;;;;;;42.75;27.33;;;;;;;;;;5073492;28;20197;-68
2023/04/09 07:53:26;;;;;;;40.83;27.75;;;;;;;;;;5073247;28;20198;-68
2023/04/09 07:55:53;;;;;;;48.05;29.10;;;;;;;;;;5072739;28;20643;-68
2023/04/09 07:58:20;;;;;;;45.78;27.10;;;;;;;;;;5073051;28;20683;-68
2023/04/09 08:00:48;;;;;;;47.95;29.73;;;;;;;;;;5073389;28;20532;-68
2023/04/09 08:03:16;;;;;;;34.08;24.85;;;;;;;;;;5072746;28;20713;-67
2023/04/09 08:05:45;;;;;;;36.72;24.33;;;;;;;;;;5073047;28;20203;-67
2023/04/09 08:08:12;;;;;;;34.10;22.80;;;;;;;;;;5073006;28;20198;-68
2023/04/09 08:10:39;;;;;;;34.50;21.80;;;;;;;;;;5072913;28;20194;-67
2023/04/09 08:13:06;;;;;;;31.30;21.80;;;;;;;;;;5073140;28;20440;-67
2023/04/09 08:15:33;;;;;;;34.45;22.33;;;;;;;;;;5072830;28;20476;-67
2023/04/09 08:18:02;;;;;;;30.03;21.87;;;;;;;;;;5072982;28;20196;-67
2023/04/09 08:20:29;;;;;;;29.27;20.10;;;;;;;;;;5073592;28;20804;-67
2023/04/09 08:22:58;;;;;;;24.17;18.67;;;;;;;;;;5073386;28;20527;-67
2023/04/09 08:25:25;;;;;;;31.23;21.97;;;;;;;;;;5073015;28;20490;-67
2023/04/09 08:27:52;;;;;;;33.60;20.60;;;;;;;;;;5072813;28;20440;-67
2023/04/09 08:30:19;;;;;;;36.90;23.50;;;;;;;;;;5072687;28;20655;-68
2023/04/09 08:32:47;;;;;;;32.43;22.07;;;;;;;;;;5072860;28;20820;-68
2023/04/09 08:35:14;;;;;;;28.30;18.93;;;;;;;;;;5072907;28;20530;-68
2023/04/09 08:37:41;;;;;;;25.90;17.30;;;;;;;;;;5072673;28;20459;-67
2023/04/09 08:40:11;;;;;;;25.13;18.30;;;;;;;;;;5090281;28;20456;-67
2023/04/09 08:42:41;;;;;;;27.90;17.70;;;;;;;;;;5092534;28;20436;-67
2023/04/09 08:45:10;;;;;;;23.47;16.33;;;;;;;;;;5093343;28;20451;-67
2023/04/09 08:47:38;;;;;;;25.97;18.17;;;;;;;;;;5092847;28;20463;-67
2023/04/09 08:50:05;;;;;;;29.03;18.67;;;;;;;;;;5092729;28;20523;-67
2023/04/09 08:52:33;;;;;;;23.53;17.90;;;;;;;;;;5093924;28;20442;-67
2023/04/09 08:55:00;;;;;;;23.97;17.43;;;;;;;;;;5096443;28;20471;-67
2023/04/09 08:57:29;;;;;;;24.57;17.13;;;;;;;;;;5095943;28;20440;-67
2023/04/09 08:59:57;;;;;;;25.60;17.77;;;;;;;;;;5096498;28;20446;-67
2023/04/09 09:02:24;;;;;;;29.13;18.63;;;;;;;;;;5095979;28;20476;-68
2023/04/09 09:04:59;;;;;;;25.40;18.63;;;;;;;;;;5096597;28;20451;-67
2023/04/09 09:07:28;;;;;;;26.73;18.37;;;;;;;;;;5096404;28;20435;-67
2023/04/09 09:09:56;;;;;;;29.10;19.40;;;;;;;;;;5095740;28;20448;-67
2023/04/09 09:12:35;;;;;;;22.40;16.67;;;;;;;;;;5095741;28;20456;-67
2023/04/09 09:15:02;;;;;;;29.40;19.90;;;;;;;;;;5095985;28;20474;-67
2023/04/09 09:17:30;;;;;;;26.70;18.33;;;;;;;;;;5096194;28;20445;-66
2023/04/09 09:19:57;;;;;;;24.90;18.77;;;;;;;;;;5095628;28;20449;-67
2023/04/09 09:22:24;;;;;;;24.60;18.13;;;;;;;;;;5096121;28;20501;-67
2023/04/09 09:24:52;;;;;;;24.20;17.90;;;;;;;;;;5095529;28;20446;-68
2023/04/09 09:27:35;;;;;;;26.50;18.47;;;;;;;;;;5095790;28;20441;-68
2023/04/09 09:30:04;;;;;;;24.17;16.70;;;;;;;;;;5095797;28;20448;-67
2023/04/09 09:32:31;;;;;;;24.33;17.20;;;;;;;;;;5095958;28;20441;-67
2023/04/09 09:35:00;;;;;;;24.60;18.30;;;;;;;;;;5095267;28;20475;-67
2023/04/09 09:37:27;;;;;;;26.37;18.10;;;;;;;;;;5095670;28;20534;-68
2023/04/09 09:39:54;;;;;;;23.60;16.47;;;;;;;;;;5095569;28;20452;-68
2023/04/09 09:42:22;;;;;;;21.87;16.90;;;;;;;;;;5095421;28;20437;-68
2023/04/09 09:44:49;;;;;;;22.17;16.40;;;;;;;;;;5095529;28;20439;-67
2023/04/09 09:47:19;;;;;;;23.90;16.83;;;;;;;;;;5095122;28;20439;-67
2023/04/09 09:49:48;;;;;;;22.60;17.43;;;;;;;;;;5094966;28;20430;-69
2023/04/09 09:52:16;;;;;;;17.50;13.00;;;;;;;;;;5095361;28;20444;-67
2023/04/09 09:54:44;;;;;;;18.37;13.00;;;;;;;;;;5095838;28;20866;-67
2023/04/09 09:57:13;;;;;;;22.20;13.90;;;;;;;;;;5095042;28;21040;-70
2023/04/09 09:59:42;;;;;;;19.20;13.80;;;;;;;;;;5095450;28;20478;-67
2023/04/09 10:02:15;;;;;;;19.30;15.83;;;;;;;;;;5095054;28;20437;-67
2023/04/09 10:04:44;;;;;;;21.00;15.80;;;;;;;;;;5094019;28;20454;-67
2023/04/09 10:07:11;;;;;;;19.07;14.80;;;;;;;;;;5095384;28;20459;-67
2023/04/09 10:09:41;;;;;;;16.67;12.90;;;;;;;;;;5095044;28;20453;-67
2023/04/09 10:12:10;;;;;;;17.50;13.00;;;;;;;;;;5094857;28;20463;-67
2023/04/09 10:14:38;;;;;;;16.40;13.30;;;;;;;;;;5094573;28;20564;-67
2023/04/09 10:17:05;;;;;;;18.50;14.00;;;;;;;;;;5094493;28;20525;-67
2023/04/09 10:19:36;;;;;;;16.20;12.50;;;;;;;;;;5094875;28;20523;-67
2023/04/09 10:22:06;;;;;;;18.80;13.10;;;;;;;;;;5094450;28;20441;-67
2023/04/09 10:24:34;;;;;;;15.37;11.60;;;;;;;;;;5095273;28;20545;-67
2023/04/09 10:27:10;;;;;;;15.03;12.23;;;;;;;;;;5094285;28;20496;-67
2023/04/09 10:29:43;;;;;;;14.80;12.30;;;;;;;;;;5094623;28;20518;-67
2023/04/09 10:32:10;;;;;;;16.47;12.53;;;;;;;;;;5095230;28;20434;-67
2023/04/09 10:34:39;;;;;;;15.50;11.97;;;;;;;;;;5094497;28;20449;-67
2023/04/09 10:37:09;;;;;;;15.67;12.47;;;;;;;;;;5094797;28;20450;-68
2023/04/09 10:39:40;;;;;;;15.20;11.90;;;;;;;;;;5094639;28;20435;-67
2023/04/09 10:42:09;;;;;;;16.83;12.33;;;;;;;;;;5094766;28;20427;-68
2023/04/09 10:44:37;;;;;;;16.50;13.60;;;;;;;;;;5094326;28;20446;-67
2023/04/09 10:47:05;;;;;;;19.80;13.90;;;;;;;;;;5094197;28;20456;-67
2023/04/09 10:49:36;;;;;;;18.07;13.03;;;;;;;;;;5095016;28;20434;-67
2023/04/09 10:52:04;;;;;;;15.47;12.37;;;;;;;;;;5094196;28;20430;-67
2023/04/09 10:54:46;;;;;;;14.63;11.60;;;;;;;;;;5094123;28;20844;-67
2023/04/09 10:57:17;;;;;;;16.03;12.33;;;;;;;;;;5093971;28;20469;-67
2023/04/09 10:59:45;;;;;;;14.10;11.17;;;;;;;;;;5093668;28;20439;-67
2023/04/09 11:02:39;;;;;;;14.33;10.60;;;;;;;;;;5094223;28;20775;-67
2023/04/09 11:05:12;;;;;;;18.50;11.73;;;;;;;;;;5058145;28;20469;-67
2023/04/09 11:07:41;;;;;;;19.40;12.90;;;;;;;;;;5093741;28;20935;-67
2023/04/09 11:10:10;;;;;;;15.73;11.07;;;;;;;;;;5093619;28;20749;-67
2023/04/09 11:12:37;;;;;;;13.33;11.23;;;;;;;;;;5094359;28;20443;-67
2023/04/09 11:15:04;;;;;;;14.23;11.23;;;;;;;;;;5093742;28;20494;-67
2023/04/09 11:17:36;;;;;;;14.40;11.30;;;;;;;;;;5094182;28;20442;-67
2023/04/09 11:20:03;;;;;;;14.03;11.17;;;;;;;;;;5094471;28;20440;-67
2023/04/09 11:22:31;;;;;;;14.40;10.90;;;;;;;;;;5093472;28;20450;-67
2023/04/09 11:24:58;;;;;;;14.27;11.00;;;;;;;;;;5093684;28;20442;-66
2023/04/09 11:27:26;;;;;;;14.17;11.27;;;;;;;;;;5093601;28;20445;-68
2023/04/09 11:29:55;;;;;;;14.20;11.20;;;;;;;;;;5093574;28;20825;-67
2023/04/09 11:32:23;;;;;;;12.73;11.03;;;;;;;;;;5094244;28;20439;-67
2023/04/09 11:34:53;;;;;;;11.23;9.90;;;;;;;;;;5092865;28;20447;-67
2023/04/09 11:37:20;;;;;;;14.33;11.80;;;;;;;;;;5093494;28;20437;-67
2023/04/09 11:39:47;;;;;;;18.97;11.77;;;;;;;;;;5093048;28;20449;-67
2023/04/09 11:42:14;;;;;;;13.80;11.13;;;;;;;;;;5093517;28;20477;-67
2023/04/09 11:44:45;;;;;;;12.70;11.40;;;;;;;;;;5093701;28;20447;-67
2023/04/09 11:47:12;;;;;;;17.17;11.50;;;;;;;;;;5093503;28;20443;-67
2023/04/09 11:49:40;;;;;;;13.43;11.17;;;;;;;;;;5093410;28;20782;-67
2023/04/09 11:52:07;;;;;;;13.37;11.23;;;;;;;;;;5093129;28;20959;-67
2023/04/09 11:54:35;;;;;;;16.10;11.90;;;;;;;;;;5092952;28;20451;-67
2023/04/09 11:57:04;;;;;;;13.40;11.63;;;;;;;;;;5092959;28;20487;-67
2023/04/09 11:59:31;;;;;;;16.77;12.80;;;;;;;;;;5093187;28;20447;-67
2023/04/09 12:02:00;;;;;;;14.73;11.67;;;;;;;;;;5093333;28;20808;-67
2023/04/09 12:04:27;;;;;;;14.80;11.97;;;;;;;;;;5092656;28;20479;-67
2023/04/09 12:06:57;;;;;;;15.40;11.53;;;;;;;;;;5093569;28;20451;-68
2023/04/09 12:09:25;;;;;;;13.50;11.40;;;;;;;;;;5093197;28;20443;-68
2023/04/09 12:11:52;;;;;;;14.40;12.37;;;;;;;;;;5093421;28;20439;-67
2023/04/09 12:14:21;;;;;;;15.10;11.20;;;;;;;;;;5093539;28;20860;-67
2023/04/09 12:16:51;;;;;;;13.43;12.00;;;;;;;;;;5092827;28;20471;-67
2023/04/09 12:19:21;;;;;;;14.00;11.33;;;;;;;;;;5093004;28;20950;-67
2023/04/09 12:21:55;;;;;;;14.37;11.50;;;;;;;;;;5093272;28;20517;-67
2023/04/09 12:24:23;;;;;;;12.43;10.73;;;;;;;;;;5093702;28;20485;-67
2023/04/09 12:26:50;;;;;;;15.30;12.00;;;;;;;;;;5093452;28;20454;-67
2023/04/09 12:29:18;;;;;;;12.27;10.97;;;;;;;;;;5097160;28;20476;-67
2023/04/09 12:31:46;;;;;;;13.53;12.13;;;;;;;;;;5097278;28;20444;-67
2023/04/09 12:34:13;;;;;;;13.93;12.47;;;;;;;;;;5096736;28;20479;-67
2023/04/09 12:36:41;;;;;;;13.43;11.57;;;;;;;;;;5096968;28;20471;-67
2023/04/09 12:39:09;;;;;;;15.03;12.53;;;;;;;;;;5096745;28;20442;-67
2023/04/09 12:41:36;;;;;;;15.40;12.73;;;;;;;;;;5096410;28;20442;-67
2023/04/09 12:44:03;;;;;;;16.03;11.80;;;;;;;;;;5096613;28;20435;-67
2023/04/09 12:46:31;;;;;;;13.10;11.70;;;;;;;;;;5096380;28;20924;-67
2023/04/09 12:48:58;;;;;;;14.63;11.73;;;;;;;;;;5096178;28;20447;-67
2023/04/09 12:51:25;;;;;;;11.00;9.83;;;;;;;;;;5096289;28;20454;-68
2023/04/09 12:53:54;;;;;;;11.63;9.90;;;;;;;;;;5096786;28;20446;-68
2023/04/09 12:56:21;;;;;;;13.63;11.00;;;;;;;;;;5096027;28;20467;-67
2023/04/09 12:58:48;;;;;;;12.00;9.90;;;;;;;;;;5095989;28;20444;-67
2023/04/09 13:01:16;;;;;;;12.77;10.33;;;;;;;;;;5096357;28;20473;-67
2023/04/09 13:03:44;;;;;;;11.83;10.50;;;;;;;;;;5096377;28;20506;-68
2023/04/09 13:06:11;;;;;;;11.20;9.80;;;;;;;;;;5096203;28;20519;-67
2023/04/09 13:08:38;;;;;;;11.87;10.07;;;;;;;;;;5096081;28;20446;-67
2023/04/09 13:11:07;;;;;;;12.80;10.43;;;;;;;;;;5096024;28;20767;-68
2023/04/09 13:13:34;;;;;;;12.40;9.97;;;;;;;;;;5096483;28;20446;-67
2023/04/09 13:16:01;;;;;;;10.70;9.60;;;;;;;;;;5095912;28;20482;-67
2023/04/09 13:18:28;;;;;;;12.10;9.30;;;;;;;;;;5096081;28;20526;-67
2023/04/09 13:20:55;;;;;;;10.93;9.07;;;;;;;;;;5095825;28;20442;-67
2023/04/09 13:23:22;;;;;;;12.00;10.33;;;;;;;;;;5096393;28;20826;-68
2023/04/09 13:25:50;;;;;;;10.80;9.70;;;;;;;;;;5095892;28;20450;-67
2023/04/09 13:28:18;;;;;;;11.20;10.00;;;;;;;;;;5096029;28;20489;-67
2023/04/09 13:30:45;;;;;;;10.63;9.60;;;;;;;;;;5095406;28;20450;-66
2023/04/09 13:33:12;;;;;;;10.53;9.47;;;;;;;;;;5095754;28;20832;-67
2023/04/09 13:35:40;;;;;;;10.07;9.07;;;;;;;;;;5095252;28;20444;-67
2023/04/09 13:38:07;;;;;;;10.40;9.33;;;;;;;;;;5095041;28;20436;-67
2023/04/09 13:40:34;;;;;;;10.13;8.50;;;;;;;;;;5094367;28;20442;-67
2023/04/09 13:43:01;;;;;;;9.87;8.87;;;;;;;;;;5095602;28;20447;-66
2023/04/09 13:45:30;;;;;;;10.00;9.00;;;;;;;;;;5095513;28;20439;-67
2023/04/09 13:47:57;;;;;;;12.00;9.10;;;;;;;;;;5095162;28;20473;-67
2023/04/09 13:50:25;;;;;;;10.60;9.50;;;;;;;;;;5095058;28;20444;-67
2023/04/09 13:52:52;;;;;;;11.10;9.10;;;;;;;;;;5095122;28;20968;-67
2023/04/09 13:55:19;;;;;;;10.43;9.40;;;;;;;;;;5095023;28;20444;-67
2023/04/09 13:57:46;;;;;;;9.00;8.10;;;;;;;;;;5095000;28;20485;-67
2023/04/09 14:00:14;;;;;;;13.53;9.63;;;;;;;;;;5095116;28;20446;-67
2023/04/09 14:02:42;;;;;;;10.17;9.17;;;;;;;;;;5094993;28;20466;-67
2023/04/09 14:05:10;;;;;;;11.10;8.73;;;;;;;;;;5054553;28;20456;-67
2023/04/09 14:07:37;;;;;;;10.83;9.20;;;;;;;;;;5054878;28;20447;-67
2023/04/09 14:10:04;;;;;;;10.33;8.57;;;;;;;;;;5055396;28;20539;-67
2023/04/09 14:12:32;;;;;;;11.73;8.30;;;;;;;;;;5054337;28;20456;-67
2023/04/09 14:14:59;;;;;;;10.20;9.10;;;;;;;;;;5054192;28;20941;-67
2023/04/09 14:17:27;;;;;;;8.93;8.00;;;;;;;;;;5054265;28;20981;-67
2023/04/09 14:19:56;;;;;;;11.13;8.73;;;;;;;;;;5054611;28;20434;-67
2023/04/09 14:22:23;;;;;;;10.97;8.83;;;;;;;;;;5054865;28;20489;-67